Terminal Aerodrome Forecast
Issued by NWS

Home | Current Version | Previous Version | Text Only | Print | Product List | Glossary On
Versions: 1 2 3 4 5 6 7 8 9 10 11 12
150
FTUS44 KEPZ 031120
TAFLRU
TAF
KLRU 031120Z 0312/0412 36015G25KT P6SM VCSH SCT020 BKN035
      TEMPO 0312/0316 3SM SHRA BKN020 OVC035
     FM031800 04015G25KT P6SM VCSH SCT025 BKN040
     FM040600 35010KT P6SM SCT040 BKN100=

USA.gov is the U.S. government's official web portal to all federal, state and local government web resources and services.